sensor_id;sensor_type;location;lat;lon;timestamp;P1;durP1;ratioP1;P2;durP2;ratioP2
31758;SDS011;36334;51.366;0.020;2022-10-04T00:05:07;22.60;;;14.18;;
31758;SDS011;36334;51.366;0.020;2022-10-04T00:08:01;23.52;;;12.40;;
31758;SDS011;36334;51.366;0.020;2022-10-04T00:11:29;21.65;;;13.65;;
31758;SDS011;36334;51.366;0.020;2022-10-04T00:14:30;20.50;;;13.32;;
31758;SDS011;36334;51.366;0.020;2022-10-04T00:17:22;23.35;;;15.25;;
31758;SDS011;36334;51.366;0.020;2022-10-04T00:29:38;23.02;;;13.32;;
31758;SDS011;36334;51.366;0.020;2022-10-04T00:38:12;20.58;;;12.02;;
31758;SDS011;36334;51.366;0.020;2022-10-04T00:41:02;16.88;;;12.45;;
31758;SDS011;36334;51.366;0.020;2022-10-04T00:43:52;16.98;;;10.95;;
31758;SDS011;36334;51.366;0.020;2022-10-04T00:46:39;15.77;;;11.57;;
31758;SDS011;36334;51.366;0.020;2022-10-04T00:49:32;17.98;;;11.10;;
31758;SDS011;36334;51.366;0.020;2022-10-04T00:52:31;18.52;;;11.35;;
31758;SDS011;36334;51.366;0.020;2022-10-04T00:55:28;17.73;;;10.55;;
31758;SDS011;36334;51.366;0.020;2022-10-04T00:58:21;19.73;;;10.68;;
31758;SDS011;36334;51.366;0.020;2022-10-04T01:01:16;17.70;;;9.93;;
31758;SDS011;36334;51.366;0.020;2022-10-04T01:04:12;18.48;;;10.75;;
31758;SDS011;36334;51.366;0.020;2022-10-04T01:07:12;13.05;;;9.38;;
31758;SDS011;36334;51.366;0.020;2022-10-04T01:10:05;16.58;;;9.48;;
31758;SDS011;36334;51.366;0.020;2022-10-04T01:13:17;15.85;;;9.02;;
31758;SDS011;36334;51.366;0.020;2022-10-04T01:16:16;14.90;;;8.77;;
31758;SDS011;36334;51.366;0.020;2022-10-04T01:22:13;15.32;;;9.02;;
31758;SDS011;36334;51.366;0.020;2022-10-04T01:28:32;13.50;;;9.68;;
31758;SDS011;36334;51.366;0.020;2022-10-04T01:31:20;12.63;;;9.43;;
31758;SDS011;36334;51.366;0.020;2022-10-04T01:34:06;17.83;;;10.63;;
31758;SDS011;36334;51.366;0.020;2022-10-04T01:36:54;17.73;;;9.40;;
31758;SDS011;36334;51.366;0.020;2022-10-04T01:39:42;14.07;;;10.13;;
31758;SDS011;36334;51.366;0.020;2022-10-04T01:42:34;13.00;;;8.85;;
31758;SDS011;36334;51.366;0.020;2022-10-04T01:45:37;18.25;;;10.25;;
31758;SDS011;36334;51.366;0.020;2022-10-04T01:48:31;14.27;;;9.32;;
31758;SDS011;36334;51.366;0.020;2022-10-04T01:51:32;13.57;;;9.20;;
31758;SDS011;36334;51.366;0.020;2022-10-04T01:54:41;13.18;;;8.93;;
31758;SDS011;36334;51.366;0.020;2022-10-04T01:57:35;14.07;;;8.88;;
31758;SDS011;36334;51.366;0.020;2022-10-04T02:00:27;12.30;;;8.52;;
31758;SDS011;36334;51.366;0.020;2022-10-04T02:03:26;13.75;;;8.75;;
31758;SDS011;36334;51.366;0.020;2022-10-04T02:06:19;12.15;;;7.75;;
31758;SDS011;36334;51.366;0.020;2022-10-04T02:09:09;16.13;;;8.32;;
31758;SDS011;36334;51.366;0.020;2022-10-04T02:12:02;18.17;;;8.82;;
31758;SDS011;36334;51.366;0.020;2022-10-04T02:14:52;11.98;;;7.55;;
31758;SDS011;36334;51.366;0.020;2022-10-04T02:17:41;12.48;;;7.70;;
31758;SDS011;36334;51.366;0.020;2022-10-04T02:20:28;14.38;;;8.48;;
31758;SDS011;36334;51.366;0.020;2022-10-04T02:23:15;13.10;;;7.93;;
31758;SDS011;36334;51.366;0.020;2022-10-04T02:26:04;9.20;;;7.13;;
31758;SDS011;36334;51.366;0.020;2022-10-04T02:28:51;13.38;;;8.35;;
31758;SDS011;36334;51.366;0.020;2022-10-04T02:31:37;13.43;;;7.22;;
31758;SDS011;36334;51.366;0.020;2022-10-04T02:34:43;10.77;;;7.72;;
31758;SDS011;36334;51.366;0.020;2022-10-04T02:37:31;15.57;;;7.82;;
31758;SDS011;36334;51.366;0.020;2022-10-04T02:40:20;12.25;;;7.32;;
31758;SDS011;36334;51.366;0.020;2022-10-04T02:43:21;12.02;;;7.28;;
31758;SDS011;36334;51.366;0.020;2022-10-04T02:46:12;9.52;;;6.80;;
31758;SDS011;36334;51.366;0.020;2022-10-04T02:49:06;12.52;;;7.00;;
31758;SDS011;36334;51.366;0.020;2022-10-04T02:58:07;15.57;;;7.32;;
31758;SDS011;36334;51.366;0.020;2022-10-04T03:00:59;10.85;;;6.47;;
31758;SDS011;36334;51.366;0.020;2022-10-04T03:03:46;10.02;;;6.40;;
31758;SDS011;36334;51.366;0.020;2022-10-04T03:06:32;10.10;;;6.82;;
31758;SDS011;36334;51.366;0.020;2022-10-04T03:09:19;13.20;;;6.57;;
31758;SDS011;36334;51.366;0.020;2022-10-04T03:12:13;11.88;;;6.35;;
31758;SDS011;36334;51.366;0.020;2022-10-04T03:15:00;8.70;;;6.25;;
31758;SDS011;36334;51.366;0.020;2022-10-04T03:17:46;10.50;;;7.20;;
31758;SDS011;36334;51.366;0.020;2022-10-04T03:20:35;11.75;;;6.97;;
31758;SDS011;36334;51.366;0.020;2022-10-04T03:23:24;12.88;;;6.53;;
31758;SDS011;36334;51.366;0.020;2022-10-04T03:26:17;12.90;;;7.07;;
31758;SDS011;36334;51.366;0.020;2022-10-04T03:29:17;13.32;;;5.40;;
31758;SDS011;36334;51.366;0.020;2022-10-04T03:32:06;10.73;;;6.13;;
31758;SDS011;36334;51.366;0.020;2022-10-04T03:34:56;12.88;;;6.63;;
31758;SDS011;36334;51.366;0.020;2022-10-04T03:37:47;13.93;;;6.32;;
31758;SDS011;36334;51.366;0.020;2022-10-04T03:40:33;12.70;;;5.78;;
31758;SDS011;36334;51.366;0.020;2022-10-04T03:43:24;14.25;;;6.00;;
31758;SDS011;36334;51.366;0.020;2022-10-04T03:46:19;10.57;;;5.45;;
31758;SDS011;36334;51.366;0.020;2022-10-04T03:49:09;9.05;;;5.70;;
31758;SDS011;36334;51.366;0.020;2022-10-04T03:52:02;8.93;;;5.68;;
31758;SDS011;36334;51.366;0.020;2022-10-04T03:54:51;11.63;;;5.55;;
31758;SDS011;36334;51.366;0.020;2022-10-04T03:57:39;8.43;;;5.45;;
31758;SDS011;36334;51.366;0.020;2022-10-04T04:00:25;9.15;;;5.15;;
31758;SDS011;36334;51.366;0.020;2022-10-04T04:03:16;9.35;;;4.90;;
31758;SDS011;36334;51.366;0.020;2022-10-04T04:06:11;9.15;;;5.80;;
31758;SDS011;36334;51.366;0.020;2022-10-04T04:09:01;12.07;;;5.68;;
31758;SDS011;36334;51.366;0.020;2022-10-04T04:11:53;10.52;;;6.22;;
31758;SDS011;36334;51.366;0.020;2022-10-04T04:14:42;10.98;;;5.35;;
31758;SDS011;36334;51.366;0.020;2022-10-04T04:17:33;8.70;;;4.80;;
31758;SDS011;36334;51.366;0.020;2022-10-04T04:20:30;8.98;;;5.35;;
31758;SDS011;36334;51.366;0.020;2022-10-04T04:23:29;12.60;;;6.10;;
31758;SDS011;36334;51.366;0.020;2022-10-04T04:29:31;7.38;;;4.80;;
31758;SDS011;36334;51.366;0.020;2022-10-04T04:32:30;11.38;;;5.10;;
31758;SDS011;36334;51.366;0.020;2022-10-04T04:35:31;11.55;;;5.40;;
31758;SDS011;36334;51.366;0.020;2022-10-04T04:38:22;11.73;;;5.07;;
31758;SDS011;36334;51.366;0.020;2022-10-04T04:41:10;11.00;;;5.00;;
31758;SDS011;36334;51.366;0.020;2022-10-04T04:43:57;9.23;;;5.32;;
31758;SDS011;36334;51.366;0.020;2022-10-04T04:46:46;12.38;;;5.60;;
31758;SDS011;36334;51.366;0.020;2022-10-04T04:49:35;9.80;;;4.80;;
31758;SDS011;36334;51.366;0.020;2022-10-04T04:52:25;9.23;;;4.75;;
31758;SDS011;36334;51.366;0.020;2022-10-04T04:58:17;12.82;;;6.53;;
31758;SDS011;36334;51.366;0.020;2022-10-04T05:07:01;11.73;;;5.05;;
31758;SDS011;36334;51.366;0.020;2022-10-04T05:09:49;11.23;;;4.68;;
31758;SDS011;36334;51.366;0.020;2022-10-04T05:12:35;22.13;;;5.88;;
31758;SDS011;36334;51.366;0.020;2022-10-04T05:15:21;6.80;;;4.78;;
31758;SDS011;36334;51.366;0.020;2022-10-04T05:18:26;10.15;;;4.55;;
31758;SDS011;36334;51.366;0.020;2022-10-04T05:21:25;8.93;;;4.85;;
31758;SDS011;36334;51.366;0.020;2022-10-04T05:24:22;8.70;;;4.57;;
31758;SDS011;36334;51.366;0.020;2022-10-04T05:27:23;6.85;;;4.20;;
31758;SDS011;36334;51.366;0.020;2022-10-04T05:30:31;8.70;;;4.93;;
31758;SDS011;36334;51.366;0.020;2022-10-04T05:33:45;10.32;;;4.68;;
31758;SDS011;36334;51.366;0.020;2022-10-04T05:36:43;5.80;;;4.05;;
31758;SDS011;36334;51.366;0.020;2022-10-04T05:42:51;7.43;;;4.70;;
31758;SDS011;36334;51.366;0.020;2022-10-04T05:45:39;8.80;;;4.60;;
31758;SDS011;36334;51.366;0.020;2022-10-04T05:48:25;5.13;;;4.47;;
31758;SDS011;36334;51.366;0.020;2022-10-04T05:51:14;7.22;;;4.15;;
31758;SDS011;36334;51.366;0.020;2022-10-04T05:54:13;6.25;;;3.97;;
31758;SDS011;36334;51.366;0.020;2022-10-04T06:00:09;7.25;;;4.25;;
31758;SDS011;36334;51.366;0.020;2022-10-04T06:03:14;7.60;;;3.67;;
31758;SDS011;36334;51.366;0.020;2022-10-04T06:06:33;9.82;;;3.05;;
31758;SDS011;36334;51.366;0.020;2022-10-04T06:15:24;7.63;;;2.92;;
31758;SDS011;36334;51.366;0.020;2022-10-04T06:21:26;7.00;;;3.13;;
31758;SDS011;36334;51.366;0.020;2022-10-04T06:24:18;3.80;;;2.47;;
31758;SDS011;36334;51.366;0.020;2022-10-04T06:30:16;5.15;;;2.50;;
31758;SDS011;36334;51.366;0.020;2022-10-04T06:33:11;4.57;;;2.20;;
31758;SDS011;36334;51.366;0.020;2022-10-04T06:45:41;5.82;;;2.65;;
31758;SDS011;36334;51.366;0.020;2022-10-04T07:03:56;5.30;;;2.38;;
31758;SDS011;36334;51.366;0.020;2022-10-04T07:07:46;6.20;;;2.00;;
31758;SDS011;36334;51.366;0.020;2022-10-04T07:10:39;2.55;;;1.83;;
31758;SDS011;36334;51.366;0.020;2022-10-04T07:13:42;5.50;;;2.22;;
31758;SDS011;36334;51.366;0.020;2022-10-04T07:19:34;3.60;;;2.08;;
31758;SDS011;36334;51.366;0.020;2022-10-04T07:22:38;3.88;;;1.95;;
31758;SDS011;36334;51.366;0.020;2022-10-04T07:25:33;6.18;;;2.33;;
31758;SDS011;36334;51.366;0.020;2022-10-04T07:28:53;7.38;;;1.80;;
31758;SDS011;36334;51.366;0.020;2022-10-04T07:34:56;4.50;;;2.00;;
31758;SDS011;36334;51.366;0.020;2022-10-04T07:37:51;5.55;;;1.70;;
31758;SDS011;36334;51.366;0.020;2022-10-04T07:41:02;7.43;;;2.83;;
31758;SDS011;36334;51.366;0.020;2022-10-04T07:43:57;5.07;;;2.13;;
31758;SDS011;36334;51.366;0.020;2022-10-04T07:49:47;4.13;;;2.30;;
31758;SDS011;36334;51.366;0.020;2022-10-04T07:58:51;6.43;;;2.15;;
31758;SDS011;36334;51.366;0.020;2022-10-04T08:04:52;4.88;;;2.30;;
31758;SDS011;36334;51.366;0.020;2022-10-04T08:17:42;3.08;;;1.55;;
31758;SDS011;36334;51.366;0.020;2022-10-04T08:20:55;1.98;;;1.48;;
31758;SDS011;36334;51.366;0.020;2022-10-04T08:26:49;3.35;;;1.60;;
31758;SDS011;36334;51.366;0.020;2022-10-04T08:29:54;3.30;;;1.58;;
31758;SDS011;36334;51.366;0.020;2022-10-04T08:36:41;4.18;;;2.30;;
31758;SDS011;36334;51.366;0.020;2022-10-04T08:49:10;3.67;;;1.92;;
31758;SDS011;36334;51.366;0.020;2022-10-04T09:02:00;4.57;;;2.10;;
31758;SDS011;36334;51.366;0.020;2022-10-04T09:11:44;5.70;;;2.70;;
31758;SDS011;36334;51.366;0.020;2022-10-04T09:18:07;2.50;;;1.87;;
31758;SDS011;36334;51.366;0.020;2022-10-04T09:33:50;3.10;;;1.75;;
31758;SDS011;36334;51.366;0.020;2022-10-04T09:37:08;4.15;;;1.40;;
31758;SDS011;36334;51.366;0.020;2022-10-04T09:40:30;3.60;;;1.60;;
31758;SDS011;36334;51.366;0.020;2022-10-04T09:56:44;5.97;;;1.83;;
31758;SDS011;36334;51.366;0.020;2022-10-04T09:59:42;4.50;;;1.80;;
31758;SDS011;36334;51.366;0.020;2022-10-04T10:05:47;3.90;;;1.70;;
31758;SDS011;36334;51.366;0.020;2022-10-04T10:09:04;6.18;;;2.08;;
31758;SDS011;36334;51.366;0.020;2022-10-04T10:12:12;2.60;;;1.50;;
31758;SDS011;36334;51.366;0.020;2022-10-04T10:34:12;6.25;;;1.27;;
31758;SDS011;36334;51.366;0.020;2022-10-04T10:40:46;2.92;;;1.10;;
31758;SDS011;36334;51.366;0.020;2022-10-04T10:57:38;4.57;;;1.90;;
31758;SDS011;36334;51.366;0.020;2022-10-04T11:12:07;1.63;;;0.88;;
31758;SDS011;36334;51.366;0.020;2022-10-04T11:28:36;1.77;;;1.05;;
31758;SDS011;36334;51.366;0.020;2022-10-04T11:43:59;5.03;;;1.63;;
31758;SDS011;36334;51.366;0.020;2022-10-04T12:09:09;3.28;;;1.40;;
31758;SDS011;36334;51.366;0.020;2022-10-04T12:12:41;3.42;;;1.83;;
31758;SDS011;36334;51.366;0.020;2022-10-04T12:40:36;4.03;;;1.63;;
31758;SDS011;36334;51.366;0.020;2022-10-04T12:43:53;4.10;;;1.35;;
31758;SDS011;36334;51.366;0.020;2022-10-04T12:57:04;3.50;;;1.60;;
31758;SDS011;36334;51.366;0.020;2022-10-04T13:05:53;2.70;;;1.17;;
31758;SDS011;36334;51.366;0.020;2022-10-04T13:17:41;2.90;;;1.50;;
31758;SDS011;36334;51.366;0.020;2022-10-04T13:26:44;6.50;;;2.10;;
31758;SDS011;36334;51.366;0.020;2022-10-04T13:29:39;3.35;;;1.33;;
31758;SDS011;36334;51.366;0.020;2022-10-04T13:32:39;16.23;;;1.83;;
31758;SDS011;36334;51.366;0.020;2022-10-04T13:35:33;3.38;;;1.40;;
31758;SDS011;36334;51.366;0.020;2022-10-04T13:45:04;4.53;;;1.48;;
31758;SDS011;36334;51.366;0.020;2022-10-04T13:48:09;6.55;;;1.27;;
31758;SDS011;36334;51.366;0.020;2022-10-04T13:55:05;5.57;;;1.70;;
31758;SDS011;36334;51.366;0.020;2022-10-04T13:58:56;7.13;;;2.03;;
31758;SDS011;36334;51.366;0.020;2022-10-04T14:27:47;4.22;;;1.45;;
31758;SDS011;36334;51.366;0.020;2022-10-04T14:43:17;2.60;;;1.10;;
31758;SDS011;36334;51.366;0.020;2022-10-04T14:50:02;4.10;;;1.20;;
31758;SDS011;36334;51.366;0.020;2022-10-04T15:11:38;2.28;;;0.90;;
31758;SDS011;36334;51.366;0.020;2022-10-04T15:23:34;1.23;;;1.00;;
31758;SDS011;36334;51.366;0.020;2022-10-04T15:35:35;2.85;;;1.20;;
31758;SDS011;36334;51.366;0.020;2022-10-04T15:47:56;3.65;;;1.30;;
31758;SDS011;36334;51.366;0.020;2022-10-04T15:54:04;3.75;;;1.60;;
31758;SDS011;36334;51.366;0.020;2022-10-04T16:06:32;2.25;;;1.38;;
31758;SDS011;36334;51.366;0.020;2022-10-04T16:09:39;3.28;;;1.70;;
31758;SDS011;36334;51.366;0.020;2022-10-04T16:15:45;5.45;;;1.75;;
31758;SDS011;36334;51.366;0.020;2022-10-04T16:35:06;5.97;;;1.98;;
31758;SDS011;36334;51.366;0.020;2022-10-04T16:41:13;3.35;;;1.77;;
31758;SDS011;36334;51.366;0.020;2022-10-04T16:44:45;9.60;;;2.15;;
31758;SDS011;36334;51.366;0.020;2022-10-04T16:47:48;9.80;;;1.75;;
31758;SDS011;36334;51.366;0.020;2022-10-04T16:57:10;4.32;;;2.28;;
31758;SDS011;36334;51.366;0.020;2022-10-04T16:59:59;4.55;;;1.58;;
31758;SDS011;36334;51.366;0.020;2022-10-04T17:03:24;4.22;;;1.60;;
31758;SDS011;36334;51.366;0.020;2022-10-04T17:06:22;4.78;;;1.70;;
31758;SDS011;36334;51.366;0.020;2022-10-04T17:09:18;6.35;;;1.80;;
31758;SDS011;36334;51.366;0.020;2022-10-04T17:15:36;5.13;;;1.55;;
31758;SDS011;36334;51.366;0.020;2022-10-04T17:18:43;4.10;;;1.63;;
31758;SDS011;36334;51.366;0.020;2022-10-04T17:21:56;2.92;;;1.63;;
31758;SDS011;36334;51.366;0.020;2022-10-04T17:25:17;4.95;;;1.70;;
31758;SDS011;36334;51.366;0.020;2022-10-04T17:28:19;7.97;;;2.33;;
31758;SDS011;36334;51.366;0.020;2022-10-04T17:43:38;4.03;;;1.63;;
31758;SDS011;36334;51.366;0.020;2022-10-04T17:49:24;4.55;;;1.58;;
31758;SDS011;36334;51.366;0.020;2022-10-04T17:52:42;5.70;;;1.77;;
31758;SDS011;36334;51.366;0.020;2022-10-04T17:55:58;2.80;;;1.55;;
31758;SDS011;36334;51.366;0.020;2022-10-04T17:58:51;2.88;;;1.42;;
31758;SDS011;36334;51.366;0.020;2022-10-04T18:04:31;4.32;;;1.75;;
31758;SDS011;36334;51.366;0.020;2022-10-04T18:07:24;5.32;;;1.58;;
31758;SDS011;36334;51.366;0.020;2022-10-04T18:16:51;4.38;;;1.80;;
31758;SDS011;36334;51.366;0.020;2022-10-04T18:22:46;9.00;;;2.25;;
31758;SDS011;36334;51.366;0.020;2022-10-04T18:25:33;5.53;;;1.90;;
31758;SDS011;36334;51.366;0.020;2022-10-04T18:28:20;5.30;;;1.80;;
31758;SDS011;36334;51.366;0.020;2022-10-04T18:31:18;3.42;;;1.70;;
31758;SDS011;36334;51.366;0.020;2022-10-04T18:43:32;5.32;;;2.20;;
31758;SDS011;36334;51.366;0.020;2022-10-04T18:46:24;5.00;;;1.95;;
31758;SDS011;36334;51.366;0.020;2022-10-04T18:49:23;4.20;;;1.90;;
31758;SDS011;36334;51.366;0.020;2022-10-04T19:04:48;5.47;;;2.63;;
31758;SDS011;36334;51.366;0.020;2022-10-04T19:08:04;3.90;;;2.08;;
31758;SDS011;36334;51.366;0.020;2022-10-04T19:11:41;10.63;;;2.60;;
31758;SDS011;36334;51.366;0.020;2022-10-04T19:18:08;6.80;;;2.10;;
31758;SDS011;36334;51.366;0.020;2022-10-04T19:20:57;5.90;;;2.10;;
31758;SDS011;36334;51.366;0.020;2022-10-04T19:24:00;5.88;;;1.90;;
31758;SDS011;36334;51.366;0.020;2022-10-04T19:33:12;6.35;;;3.13;;
31758;SDS011;36334;51.366;0.020;2022-10-04T19:43:06;6.13;;;1.80;;
31758;SDS011;36334;51.366;0.020;2022-10-04T19:46:04;3.75;;;2.00;;
31758;SDS011;36334;51.366;0.020;2022-10-04T19:49:18;9.73;;;2.50;;
31758;SDS011;36334;51.366;0.020;2022-10-04T19:52:18;4.95;;;1.80;;
31758;SDS011;36334;51.366;0.020;2022-10-04T19:55:53;6.00;;;2.05;;
31758;SDS011;36334;51.366;0.020;2022-10-04T20:01:25;8.32;;;2.00;;
31758;SDS011;36334;51.366;0.020;2022-10-04T20:04:15;6.32;;;2.20;;
31758;SDS011;36334;51.366;0.020;2022-10-04T20:07:21;6.68;;;2.00;;
31758;SDS011;36334;51.366;0.020;2022-10-04T20:10:32;6.97;;;2.10;;
31758;SDS011;36334;51.366;0.020;2022-10-04T20:13:22;6.03;;;2.13;;
31758;SDS011;36334;51.366;0.020;2022-10-04T20:16:09;9.07;;;2.30;;
31758;SDS011;36334;51.366;0.020;2022-10-04T20:18:57;7.70;;;1.85;;
31758;SDS011;36334;51.366;0.020;2022-10-04T20:21:44;6.47;;;2.80;;
31758;SDS011;36334;51.366;0.020;2022-10-04T20:30:14;6.63;;;2.10;;
31758;SDS011;36334;51.366;0.020;2022-10-04T20:33:01;7.50;;;2.00;;
31758;SDS011;36334;51.366;0.020;2022-10-04T20:39:06;7.53;;;2.20;;
31758;SDS011;36334;51.366;0.020;2022-10-04T20:42:29;8.63;;;2.65;;
31758;SDS011;36334;51.366;0.020;2022-10-04T20:45:20;5.50;;;2.35;;
31758;SDS011;36334;51.366;0.020;2022-10-04T20:48:10;8.80;;;2.65;;
31758;SDS011;36334;51.366;0.020;2022-10-04T20:51:15;7.05;;;2.13;;
31758;SDS011;36334;51.366;0.020;2022-10-04T20:54:13;5.75;;;2.20;;
31758;SDS011;36334;51.366;0.020;2022-10-04T20:57:01;5.45;;;2.58;;
31758;SDS011;36334;51.366;0.020;2022-10-04T20:59:50;9.48;;;2.40;;
31758;SDS011;36334;51.366;0.020;2022-10-04T21:02:39;5.97;;;2.00;;
31758;SDS011;36334;51.366;0.020;2022-10-04T21:05:26;5.30;;;2.00;;
31758;SDS011;36334;51.366;0.020;2022-10-04T21:08:12;4.97;;;2.17;;
31758;SDS011;36334;51.366;0.020;2022-10-04T21:11:03;8.00;;;1.90;;
31758;SDS011;36334;51.366;0.020;2022-10-04T21:13:52;8.07;;;1.52;;
31758;SDS011;36334;51.366;0.020;2022-10-04T21:16:43;4.88;;;1.92;;
31758;SDS011;36334;51.366;0.020;2022-10-04T21:25:05;7.57;;;2.22;;
31758;SDS011;36334;51.366;0.020;2022-10-04T21:28:51;8.77;;;2.00;;
31758;SDS011;36334;51.366;0.020;2022-10-04T21:31:27;4.72;;;1.60;;
31758;SDS011;36334;51.366;0.020;2022-10-04T21:34:13;5.90;;;1.83;;
31758;SDS011;36334;51.366;0.020;2022-10-04T21:37:19;4.60;;;1.80;;
31758;SDS011;36334;51.366;0.020;2022-10-04T21:40:06;4.32;;;1.73;;
31758;SDS011;36334;51.366;0.020;2022-10-04T21:42:53;4.35;;;1.60;;
31758;SDS011;36334;51.366;0.020;2022-10-04T21:45:39;9.20;;;1.80;;
31758;SDS011;36334;51.366;0.020;2022-10-04T21:48:25;9.15;;;2.40;;
31758;SDS011;36334;51.366;0.020;2022-10-04T21:51:11;6.07;;;1.80;;
31758;SDS011;36334;51.366;0.020;2022-10-04T21:53:58;5.38;;;1.75;;
31758;SDS011;36334;51.366;0.020;2022-10-04T21:56:44;5.35;;;2.08;;
31758;SDS011;36334;51.366;0.020;2022-10-04T21:59:30;5.45;;;1.50;;
31758;SDS011;36334;51.366;0.020;2022-10-04T22:02:16;6.65;;;1.85;;
31758;SDS011;36334;51.366;0.020;2022-10-04T22:05:02;6.90;;;2.70;;
31758;SDS011;36334;51.366;0.020;2022-10-04T22:07:49;3.67;;;1.90;;
31758;SDS011;36334;51.366;0.020;2022-10-04T22:10:35;5.25;;;2.10;;
31758;SDS011;36334;51.366;0.020;2022-10-04T22:13:21;6.13;;;2.50;;
31758;SDS011;36334;51.366;0.020;2022-10-04T22:16:07;5.13;;;1.95;;
31758;SDS011;36334;51.366;0.020;2022-10-04T22:18:53;4.40;;;2.30;;
31758;SDS011;36334;51.366;0.020;2022-10-04T22:21:39;7.70;;;2.05;;
31758;SDS011;36334;51.366;0.020;2022-10-04T22:24:25;6.07;;;2.40;;
31758;SDS011;36334;51.366;0.020;2022-10-04T22:27:12;6.03;;;2.33;;
31758;SDS011;36334;51.366;0.020;2022-10-04T22:30:00;3.78;;;2.28;;
31758;SDS011;36334;51.366;0.020;2022-10-04T22:32:46;7.95;;;2.40;;
31758;SDS011;36334;51.366;0.020;2022-10-04T22:35:32;8.90;;;2.53;;
31758;SDS011;36334;51.366;0.020;2022-10-04T22:38:20;7.25;;;2.35;;
31758;SDS011;36334;51.366;0.020;2022-10-04T22:41:10;5.18;;;1.85;;
31758;SDS011;36334;51.366;0.020;2022-10-04T22:43:58;7.65;;;2.45;;
31758;SDS011;36334;51.366;0.020;2022-10-04T22:46:52;5.05;;;2.00;;
31758;SDS011;36334;51.366;0.020;2022-10-04T22:49:41;5.35;;;2.20;;
31758;SDS011;36334;51.366;0.020;2022-10-04T22:52:29;9.43;;;2.40;;
31758;SDS011;36334;51.366;0.020;2022-10-04T22:55:16;4.90;;;2.60;;
31758;SDS011;36334;51.366;0.020;2022-10-04T22:58:02;6.47;;;1.92;;
31758;SDS011;36334;51.366;0.020;2022-10-04T23:00:48;4.50;;;1.83;;
31758;SDS011;36334;51.366;0.020;2022-10-04T23:03:35;5.90;;;2.30;;
31758;SDS011;36334;51.366;0.020;2022-10-04T23:06:22;6.28;;;2.10;;
31758;SDS011;36334;51.366;0.020;2022-10-04T23:09:08;6.95;;;2.03;;
31758;SDS011;36334;51.366;0.020;2022-10-04T23:11:55;11.05;;;3.25;;
31758;SDS011;36334;51.366;0.020;2022-10-04T23:14:41;4.72;;;2.30;;
31758;SDS011;36334;51.366;0.020;2022-10-04T23:17:34;8.85;;;2.50;;
31758;SDS011;36334;51.366;0.020;2022-10-04T23:20:22;5.63;;;1.67;;
31758;SDS011;36334;51.366;0.020;2022-10-04T23:23:12;8.10;;;2.08;;
31758;SDS011;36334;51.366;0.020;2022-10-04T23:26:11;4.97;;;2.00;;
31758;SDS011;36334;51.366;0.020;2022-10-04T23:28:58;7.43;;;2.23;;
31758;SDS011;36334;51.366;0.020;2022-10-04T23:31:44;6.57;;;2.67;;
31758;SDS011;36334;51.366;0.020;2022-10-04T23:34:35;7.05;;;2.10;;
31758;SDS011;36334;51.366;0.020;2022-10-04T23:37:24;5.40;;;1.80;;
31758;SDS011;36334;51.366;0.020;2022-10-04T23:40:11;4.55;;;1.90;;
31758;SDS011;36334;51.366;0.020;2022-10-04T23:43:01;8.73;;;2.08;;
31758;SDS011;36334;51.366;0.020;2022-10-04T23:45:48;5.75;;;1.70;;
31758;SDS011;36334;51.366;0.020;2022-10-04T23:48:40;7.63;;;2.22;;
31758;SDS011;36334;51.366;0.020;2022-10-04T23:51:26;2.67;;;1.77;;
31758;SDS011;36334;51.366;0.020;2022-10-04T23:54:16;7.40;;;2.50;;
31758;SDS011;36334;51.366;0.020;2022-10-04T23:57:07;5.57;;;2.00;;
31758;SDS011;36334;51.366;0.020;2022-10-04T23:59:57;7.40;;;1.67;;
